Time;durP1;ratioP1;P1;durP2;ratioP2;P2;SDS_P1;SDS_P2;PMS_P1;PMS_P2;Temp;Humidity;BMP_temperature;BMP_pressure;BME280_temperature;BME280_humidity;BME280_pressure;Samples;Min_cycle;Max_cycle;Signal;HPM_P1;HPM_P2
2022/11/10 00:02:01;;;;;;;;;;;17.40;93.30;;;;;;5097166;28;20007;-37
2022/11/10 00:04:27;;;;;;;;;;;17.40;93.30;;;;;;5097592;28;19915;-37
2022/11/10 00:06:52;;;;;;;;;;;17.40;93.30;;;;;;5097316;28;19908;-38
2022/11/10 00:09:18;;;;;;;;;;;17.40;93.30;;;;;;5097517;28;20014;-38
2022/11/10 00:11:43;;;;;;;;;;;17.50;93.40;;;;;;5097758;28;19931;-38
2022/11/10 00:16:59;;;;;;;;;;;17.50;93.40;;;;;;5097358;28;19973;-37
2022/11/10 00:19:28;;;;;;;;;;;17.40;93.40;;;;;;5097331;28;19908;-37
2022/11/10 00:21:53;;;;;;;;;;;17.40;93.40;;;;;;5097153;28;20008;-38
2022/11/10 00:24:19;;;;;;;;;;;17.40;93.40;;;;;;5097185;28;19940;-37
2022/11/10 00:26:44;;;;;;;;;;;17.40;93.40;;;;;;5097232;28;20247;-37
2022/11/10 00:29:10;;;;;;;;;;;17.50;93.40;;;;;;5093077;28;20260;-37
2022/11/10 00:31:39;;;;;;;;;;;17.50;93.40;;;;;;5095146;28;19912;-37
2022/11/10 00:34:04;;;;;;;;;;;17.40;93.40;;;;;;5096803;28;20011;-37
2022/11/10 00:36:30;;;;;;;;;;;17.40;93.40;;;;;;5096397;28;20351;-37
2022/11/10 00:38:56;;;;;;;;;;;17.50;93.50;;;;;;5096504;28;19912;-37
2022/11/10 00:41:21;;;;;;;;;;;17.50;93.50;;;;;;5096435;28;19999;-38
2022/11/10 00:43:47;;;;;;;;;;;17.50;93.50;;;;;;5096083;28;19999;-37
2022/11/10 00:46:13;;;;;;;;;;;17.50;93.50;;;;;;5095897;28;19908;-37
2022/11/10 00:48:38;;;;;;;;;;;17.50;93.50;;;;;;5094137;28;19920;-38
2022/11/10 00:51:04;;;;;;;;;;;17.50;93.50;;;;;;5095262;28;20255;-37
2022/11/10 00:53:30;;;;;;;;;;;17.50;93.60;;;;;;5094894;28;19955;-38
2022/11/10 00:55:55;;;;;;;;;;;17.50;93.60;;;;;;5094953;28;20428;-37
2022/11/10 00:58:21;;;;;;;;;;;17.50;93.60;;;;;;5090255;28;19988;-38
2022/11/10 01:00:46;;;;;;;;;;;17.50;93.60;;;;;;5095107;28;19908;-37
2022/11/10 01:03:16;;;;;;;;;;;17.50;93.60;;;;;;5094511;28;20267;-38
2022/11/10 01:05:42;;;;;;;;;;;17.50;93.60;;;;;;5094664;28;19999;-38
2022/11/10 01:08:07;;;;;;;;;;;17.50;93.60;;;;;;5093634;28;19965;-42
2022/11/10 01:10:33;;;;;;;;;;;17.50;93.60;;;;;;5091971;28;19912;-38
2022/11/10 01:12:59;;;;;;;;;;;17.50;93.60;;;;;;5094567;28;19986;-40
2022/11/10 01:15:24;;;;;;;;;;;17.40;93.60;;;;;;5094701;28;20292;-37
2022/11/10 01:17:50;;;;;;;;;;;17.50;93.60;;;;;;5094851;28;19908;-38
2022/11/10 01:20:15;;;;;;;;;;;17.50;93.60;;;;;;5094145;28;20010;-43
2022/11/10 01:22:41;;;;;;;;;;;17.50;93.60;;;;;;5090669;28;19908;-38
2022/11/10 01:25:07;;;;;;;;;;;17.50;93.60;;;;;;5093315;28;19915;-38
2022/11/10 01:27:32;;;;;;;;;;;17.50;93.60;;;;;;5093132;28;19954;-38
2022/11/10 01:29:58;;;;;;;;;;;17.50;93.70;;;;;;5087145;28;19912;-37
2022/11/10 01:32:23;;;;;;;;;;;17.50;93.60;;;;;;5094376;28;19908;-38
2022/11/10 01:34:49;;;;;;;;;;;17.50;93.70;;;;;;5093847;28;19919;-38
2022/11/10 01:37:14;;;;;;;;;;;17.50;93.70;;;;;;5094404;28;19916;-38
2022/11/10 01:39:40;;;;;;;;;;;17.50;93.70;;;;;;5093920;28;20266;-38
2022/11/10 01:42:05;;;;;;;;;;;17.50;93.70;;;;;;5094242;28;20232;-38
2022/11/10 01:44:31;;;;;;;;;;;17.50;93.70;;;;;;5096564;28;19969;-37
2022/11/10 01:46:56;;;;;;;;;;;17.50;93.70;;;;;;5092645;28;19916;-45
2022/11/10 01:49:24;;;;;;;;;;;17.50;93.70;;;;;;5074544;28;19916;-37
2022/11/10 01:51:52;;;;;;;;;;;17.50;93.80;;;;;;5093780;28;19940;-38
2022/11/10 01:54:25;;;;;;;;;;;17.50;93.80;;;;;;5093995;28;19961;-41
2022/11/10 01:56:52;;;;;;;;;;;17.40;93.80;;;;;;5093805;28;19919;-38
2022/11/10 01:59:20;;;;;;;;;;;17.50;93.80;;;;;;5093266;28;20054;-37
2022/11/10 02:01:47;;;;;;;;;;;17.50;93.80;;;;;;5093529;28;20336;-38
2022/11/10 02:04:14;;;;;;;;;;;17.50;93.80;;;;;;5084277;28;19915;-38
2022/11/10 02:06:40;;;;;;;;;;;17.50;93.80;;;;;;5093670;28;19920;-39
2022/11/10 02:09:06;;;;;;;;;;;17.50;93.80;;;;;;5093695;28;20452;-38
2022/11/10 02:11:32;;;;;;;;;;;17.50;93.80;;;;;;5077687;28;19959;-38
2022/11/10 02:13:58;;;;;;;;;;;17.50;93.80;;;;;;5085742;28;19939;-37
2022/11/10 02:16:23;;;;;;;;;;;17.50;93.80;;;;;;5089835;28;20021;-37
2022/11/10 02:18:49;;;;;;;;;;;17.50;93.80;;;;;;5094339;28;19908;-40
2022/11/10 02:21:18;;;;;;;;;;;17.50;93.90;;;;;;5094692;28;19952;-37
2022/11/10 02:23:45;;;;;;;;;;;17.50;93.90;;;;;;5094979;28;19915;-37
2022/11/10 02:26:11;;;;;;;;;;;17.50;93.90;;;;;;5076664;28;19908;-37
2022/11/10 02:28:37;;;;;;;;;;;17.50;93.80;;;;;;5094752;28;19931;-37
2022/11/10 02:31:03;;;;;;;;;;;17.50;93.80;;;;;;5094441;28;20378;-37
2022/11/10 02:33:28;;;;;;;;;;;17.50;93.80;;;;;;5094740;28;19912;-37
2022/11/10 02:35:54;;;;;;;;;;;17.50;93.80;;;;;;5094206;28;19919;-38
2022/11/10 02:38:20;;;;;;;;;;;17.50;93.80;;;;;;5094336;28;20430;-38
2022/11/10 02:40:47;;;;;;;;;;;17.50;93.90;;;;;;5094544;28;19912;-37
2022/11/10 02:43:13;;;;;;;;;;;17.50;93.90;;;;;;5094167;28;19915;-37
2022/11/10 02:45:42;;;;;;;;;;;17.50;93.90;;;;;;5094060;28;19979;-37
2022/11/10 02:48:09;;;;;;;;;;;17.50;93.90;;;;;;5091325;28;20022;-38
2022/11/10 02:50:34;;;;;;;;;;;17.50;93.90;;;;;;5094356;28;19908;-37
2022/11/10 02:52:59;;;;;;;;;;;17.50;93.90;;;;;;5091715;28;20369;-37
2022/11/10 02:55:25;;;;;;;;;;;17.50;93.90;;;;;;5082583;28;20108;-37
2022/11/10 02:57:51;;;;;;;;;;;17.50;93.90;;;;;;5094318;28;19908;-38
2022/11/10 03:00:16;;;;;;;;;;;17.50;93.90;;;;;;5094011;28;19916;-38
2022/11/10 03:02:42;;;;;;;;;;;17.50;93.90;;;;;;5093866;28;19915;-37
2022/11/10 03:05:07;;;;;;;;;;;17.50;93.90;;;;;;5109182;28;20002;-37
2022/11/10 03:07:33;;;;;;;;;;;17.50;93.90;;;;;;5114430;28;19920;-37
2022/11/10 03:09:58;;;;;;;;;;;17.50;93.90;;;;;;5104694;28;19909;-37
2022/11/10 03:12:24;;;;;;;;;;;17.50;94.00;;;;;;5093533;28;19915;-37
2022/11/10 03:14:49;;;;;;;;;;;17.50;93.90;;;;;;5093664;28;19916;-37
2022/11/10 03:17:15;;;;;;;;;;;17.50;93.90;;;;;;5094308;28;19908;-37
2022/11/10 03:19:40;;;;;;;;;;;17.50;93.90;;;;;;5097177;28;20274;-37
2022/11/10 03:22:05;;;;;;;;;;;17.50;94.00;;;;;;5106015;28;19923;-37
2022/11/10 03:24:31;;;;;;;;;;;17.50;94.00;;;;;;5092590;28;19908;-37
2022/11/10 03:26:56;;;;;;;;;;;17.50;94.00;;;;;;5093755;28;19912;-37
2022/11/10 03:29:22;;;;;;;;;;;17.50;94.00;;;;;;5095136;28;19915;-38
2022/11/10 03:31:47;;;;;;;;;;;17.50;94.00;;;;;;5099056;28;19916;-38
2022/11/10 03:34:13;;;;;;;;;;;17.50;94.00;;;;;;5082310;28;19920;-38
2022/11/10 03:36:38;;;;;;;;;;;17.50;94.00;;;;;;5093549;28;20003;-38
2022/11/10 03:39:04;;;;;;;;;;;17.50;94.00;;;;;;5093760;28;19908;-37
2022/11/10 03:41:30;;;;;;;;;;;17.50;94.00;;;;;;5093825;28;19947;-38
2022/11/10 03:43:56;;;;;;;;;;;17.50;94.00;;;;;;5075582;28;19915;-38
2022/11/10 03:46:21;;;;;;;;;;;17.50;94.00;;;;;;5093436;28;19908;-38
2022/11/10 03:48:46;;;;;;;;;;;17.50;94.00;;;;;;5093532;28;19916;-38
2022/11/10 03:51:12;;;;;;;;;;;17.50;94.00;;;;;;5093751;28;19961;-37
2022/11/10 03:53:37;;;;;;;;;;;17.50;94.00;;;;;;5093386;28;20389;-37
2022/11/10 03:56:04;;;;;;;;;;;17.50;94.00;;;;;;5093668;28;19912;-38
2022/11/10 03:58:29;;;;;;;;;;;17.50;94.00;;;;;;5093641;28;19915;-37
2022/11/10 04:00:55;;;;;;;;;;;17.50;94.00;;;;;;5089307;28;19908;-37
2022/11/10 04:03:21;;;;;;;;;;;17.50;94.00;;;;;;5093661;28;20267;-37
2022/11/10 04:15:40;;;;;;;;;;;17.50;94.00;;;;;;5093418;28;19911;-37
2022/11/10 04:16:44;;;;;;;;;;;17.50;94.00;;;;;;5093383;28;19956;-37
2022/11/10 04:19:10;;;;;;;;;;;17.50;94.00;;;;;;5093724;28;20245;-37
2022/11/10 04:21:35;;;;;;;;;;;17.50;94.00;;;;;;5092883;28;19908;-40
2022/11/10 04:24:01;;;;;;;;;;;17.40;94.00;;;;;;5095114;28;20193;-39
2022/11/10 04:26:30;;;;;;;;;;;17.50;94.10;;;;;;5077909;28;19904;-37
2022/11/10 04:28:57;;;;;;;;;;;17.50;94.00;;;;;;5097124;28;19908;-38
2022/11/10 04:31:23;;;;;;;;;;;17.50;94.10;;;;;;5097049;28;20006;-38
2022/11/10 04:33:49;;;;;;;;;;;17.50;94.10;;;;;;5096581;28;19912;-38
2022/11/10 04:36:16;;;;;;;;;;;17.50;94.10;;;;;;5097269;28;19912;-37
2022/11/10 04:38:42;;;;;;;;;;;17.50;94.10;;;;;;5096558;28;19911;-37
2022/11/10 04:41:07;;;;;;;;;;;17.40;94.10;;;;;;5096885;28;19904;-38
2022/11/10 04:43:33;;;;;;;;;;;17.50;94.10;;;;;;5096534;28;19973;-38
2022/11/10 04:45:59;;;;;;;;;;;17.50;94.10;;;;;;5096528;28;19904;-38
2022/11/10 04:48:25;;;;;;;;;;;17.50;94.10;;;;;;5096995;28;19958;-38
2022/11/10 04:50:50;;;;;;;;;;;17.50;94.10;;;;;;5096616;28;19904;-37
2022/11/10 04:53:16;;;;;;;;;;;17.50;94.10;;;;;;5096644;28;20053;-38
2022/11/10 04:55:42;;;;;;;;;;;17.50;94.10;;;;;;5096536;28;19995;-38
2022/11/10 04:58:08;;;;;;;;;;;17.40;94.10;;;;;;5096761;28;19904;-37
2022/11/10 05:00:34;;;;;;;;;;;17.50;94.10;;;;;;5096814;28;19912;-37
2022/11/10 05:03:00;;;;;;;;;;;17.50;94.10;;;;;;5096519;28;19904;-37
2022/11/10 05:05:25;;;;;;;;;;;17.50;94.10;;;;;;5096147;28;20366;-38
2022/11/10 05:07:51;;;;;;;;;;;17.50;94.10;;;;;;5096606;28;19916;-37
2022/11/10 05:10:16;;;;;;;;;;;17.50;94.10;;;;;;5096004;28;19904;-38
2022/11/10 05:12:42;;;;;;;;;;;17.50;94.10;;;;;;5095885;28;19908;-37
2022/11/10 05:15:08;;;;;;;;;;;17.50;94.10;;;;;;5095822;28;19910;-37
2022/11/10 05:17:33;;;;;;;;;;;17.50;94.10;;;;;;5096576;28;19904;-37
2022/11/10 05:19:59;;;;;;;;;;;17.50;94.10;;;;;;5095806;28;19904;-38
2022/11/10 05:22:24;;;;;;;;;;;17.50;94.10;;;;;;5096065;28;19950;-38
2022/11/10 05:24:50;;;;;;;;;;;17.50;94.10;;;;;;5096270;28;20250;-37
2022/11/10 05:27:16;;;;;;;;;;;17.50;94.00;;;;;;5095574;28;19969;-37
2022/11/10 05:29:41;;;;;;;;;;;17.50;94.10;;;;;;5095785;28;19904;-37
2022/11/10 05:32:07;;;;;;;;;;;17.50;94.10;;;;;;5095759;28;19980;-38
2022/11/10 05:34:32;;;;;;;;;;;17.50;94.10;;;;;;5095087;28;19908;-38
2022/11/10 05:36:57;;;;;;;;;;;17.50;94.10;;;;;;5095456;28;19958;-38
2022/11/10 05:39:23;;;;;;;;;;;17.50;94.10;;;;;;5096013;28;19908;-37
2022/11/10 05:41:48;;;;;;;;;;;17.50;94.10;;;;;;5095576;28;19946;-38
2022/11/10 05:44:14;;;;;;;;;;;17.50;94.10;;;;;;5095565;28;19961;-38
2022/11/10 05:46:39;;;;;;;;;;;17.50;94.10;;;;;;5095178;28;19904;-37
2022/11/10 05:49:05;;;;;;;;;;;17.50;94.10;;;;;;5095314;28;19958;-38
2022/11/10 05:51:30;;;;;;;;;;;17.50;94.00;;;;;;5095417;28;20098;-37
2022/11/10 05:53:56;;;;;;;;;;;17.50;94.00;;;;;;5095301;28;20307;-38
2022/11/10 05:56:21;;;;;;;;;;;17.50;94.00;;;;;;5095118;28;19976;-38
2022/11/10 05:58:46;;;;;;;;;;;17.50;94.00;;;;;;5095149;28;19911;-37
2022/11/10 06:01:12;;;;;;;;;;;17.50;94.10;;;;;;5094911;28;19955;-37
2022/11/10 06:03:37;;;;;;;;;;;17.50;94.10;;;;;;5095186;28;19908;-38
2022/11/10 06:06:03;;;;;;;;;;;17.50;94.10;;;;;;5094784;28;19937;-37
2022/11/10 06:08:28;;;;;;;;;;;17.50;94.10;;;;;;5094611;28;19924;-38
2022/11/10 06:10:54;;;;;;;;;;;17.50;94.10;;;;;;5094716;28;19995;-39
2022/11/10 06:13:19;;;;;;;;;;;17.40;94.10;;;;;;5094546;28;19908;-37
2022/11/10 06:15:45;;;;;;;;;;;17.40;94.10;;;;;;5076559;28;19908;-38
2022/11/10 06:18:10;;;;;;;;;;;17.50;94.20;;;;;;5094801;28;19966;-37
2022/11/10 06:20:36;;;;;;;;;;;17.40;94.20;;;;;;5094812;28;19911;-37
2022/11/10 06:23:05;;;;;;;;;;;17.50;94.20;;;;;;5095047;28;19944;-38
2022/11/10 06:25:32;;;;;;;;;;;17.50;94.20;;;;;;5094219;28;20301;-38
2022/11/10 06:27:58;;;;;;;;;;;17.50;94.30;;;;;;5094360;28;19951;-41
2022/11/10 06:30:24;;;;;;;;;;;17.50;94.30;;;;;;5094228;28;20362;-37
2022/11/10 06:32:49;;;;;;;;;;;17.50;94.30;;;;;;5094503;28;20270;-37
2022/11/10 06:35:15;;;;;;;;;;;17.50;94.30;;;;;;5094059;28;19908;-37
2022/11/10 06:37:40;;;;;;;;;;;17.40;94.30;;;;;;5094433;28;19904;-37
2022/11/10 06:40:07;;;;;;;;;;;17.50;94.30;;;;;;5088485;28;19938;-38
2022/11/10 06:42:33;;;;;;;;;;;17.50;94.30;;;;;;5092404;28;19950;-38
2022/11/10 06:44:58;;;;;;;;;;;17.50;94.30;;;;;;5092467;28;19954;-38
2022/11/10 06:47:24;;;;;;;;;;;17.50;94.30;;;;;;5092551;28;19913;-38
2022/11/10 06:49:49;;;;;;;;;;;17.50;94.40;;;;;;5092490;28;19916;-38
2022/11/10 06:52:15;;;;;;;;;;;17.50;94.30;;;;;;5092670;28;19916;-38
2022/11/10 06:54:40;;;;;;;;;;;17.50;94.30;;;;;;5090161;28;19921;-38
2022/11/10 06:57:06;;;;;;;;;;;17.50;94.40;;;;;;5090749;28;20259;-38
2022/11/10 06:59:32;;;;;;;;;;;17.40;94.40;;;;;;5092099;28;20047;-39
2022/11/10 07:01:57;;;;;;;;;;;17.50;94.40;;;;;;5092426;28;19948;-38
2022/11/10 07:04:23;;;;;;;;;;;17.40;94.40;;;;;;5091884;28;19908;-38
2022/11/10 07:06:48;;;;;;;;;;;17.50;94.40;;;;;;5088951;28;19974;-37
2022/11/10 07:09:14;;;;;;;;;;;17.50;94.40;;;;;;5092124;28;19927;-38
2022/11/10 07:11:39;;;;;;;;;;;17.40;94.40;;;;;;5092891;28;20096;-37
2022/11/10 07:14:05;;;;;;;;;;;17.50;94.40;;;;;;5091912;28;19926;-37
2022/11/10 07:16:30;;;;;;;;;;;17.50;94.40;;;;;;5092357;28;19912;-38
2022/11/10 07:18:56;;;;;;;;;;;17.40;94.40;;;;;;5092505;28;20246;-38
2022/11/10 07:21:21;;;;;;;;;;;17.50;94.50;;;;;;5092186;28;19908;-37
2022/11/10 07:23:47;;;;;;;;;;;17.50;94.40;;;;;;5086709;28;19953;-38
2022/11/10 07:26:12;;;;;;;;;;;17.50;94.40;;;;;;5092345;28;20015;-38
2022/11/10 07:28:37;;;;;;;;;;;17.50;94.50;;;;;;5093633;28;19909;-37
2022/11/10 07:31:03;;;;;;;;;;;17.50;94.40;;;;;;5106314;28;20324;-37
2022/11/10 07:33:29;;;;;;;;;;;17.50;94.50;;;;;;5113940;28;19949;-38
2022/11/10 07:35:58;;;;;;;;;;;17.50;94.50;;;;;;5113563;28;19918;-38
2022/11/10 07:38:24;;;;;;;;;;;17.50;94.50;;;;;;5113739;28;19915;-46
2022/11/10 07:40:50;;;;;;;;;;;17.50;94.50;;;;;;5104617;28;20287;-38
2022/11/10 07:43:16;;;;;;;;;;;17.50;94.50;;;;;;5096788;28;19973;-38
2022/11/10 07:45:41;;;;;;;;;;;17.50;94.50;;;;;;5096725;28;20064;-38
2022/11/10 07:48:08;;;;;;;;;;;17.50;94.50;;;;;;5095427;28;19921;-38
2022/11/10 07:50:34;;;;;;;;;;;17.50;94.50;;;;;;5100274;28;19915;-38
2022/11/10 07:53:03;;;;;;;;;;;17.50;94.50;;;;;;5098210;28;20262;-38
2022/11/10 07:55:29;;;;;;;;;;;17.50;94.50;;;;;;5081974;28;20279;-38
2022/11/10 07:57:58;;;;;;;;;;;17.50;94.50;;;;;;5080973;28;19913;-40
2022/11/10 08:00:23;;;;;;;;;;;17.50;94.50;;;;;;5097069;28;19908;-38
2022/11/10 08:02:49;;;;;;;;;;;17.50;94.50;;;;;;5096815;28;20377;-38
2022/11/10 08:05:15;;;;;;;;;;;17.50;94.50;;;;;;5096797;28;20338;-38
2022/11/10 08:07:41;;;;;;;;;;;17.50;94.50;;;;;;5096932;28;19944;-38
2022/11/10 08:10:07;;;;;;;;;;;17.50;94.50;;;;;;5110058;28;19927;-39
2022/11/10 08:12:32;;;;;;;;;;;17.50;94.50;;;;;;5084980;28;19966;-38
2022/11/10 08:14:57;;;;;;;;;;;17.50;94.40;;;;;;5094714;28;19916;-39
2022/11/10 08:17:23;;;;;;;;;;;17.60;94.40;;;;;;5090713;28;19912;-38
2022/11/10 08:19:48;;;;;;;;;;;17.60;94.40;;;;;;5088744;28;19909;-38
2022/11/10 08:22:14;;;;;;;;;;;17.50;94.40;;;;;;5096683;28;19912;-38
2022/11/10 08:24:39;;;;;;;;;;;17.60;94.40;;;;;;5096777;28;19908;-38
2022/11/10 08:27:05;;;;;;;;;;;17.50;94.30;;;;;;5097107;28;19953;-38
2022/11/10 08:29:30;;;;;;;;;;;17.50;94.30;;;;;;5096553;28;19951;-38
2022/11/10 08:31:56;;;;;;;;;;;17.60;94.30;;;;;;5096279;28;19918;-44
2022/11/10 08:34:21;;;;;;;;;;;17.60;94.20;;;;;;5096488;28;20001;-38
2022/11/10 08:36:47;;;;;;;;;;;17.50;94.20;;;;;;5096459;28;20265;-37
2022/11/10 08:39:13;;;;;;;;;;;17.60;94.20;;;;;;5096311;28;19976;-38
2022/11/10 08:41:38;;;;;;;;;;;17.50;94.20;;;;;;5096751;28;19912;-37
2022/11/10 08:44:04;;;;;;;;;;;17.50;94.20;;;;;;5081327;28;19916;-37
2022/11/10 08:46:29;;;;;;;;;;;17.60;94.20;;;;;;5095193;28;19931;-38
2022/11/10 08:48:55;;;;;;;;;;;17.60;94.20;;;;;;5095903;28;19973;-38
2022/11/10 08:51:21;;;;;;;;;;;17.60;94.20;;;;;;5096095;28;20277;-37
2022/11/10 08:53:46;;;;;;;;;;;17.60;94.10;;;;;;5096195;28;20357;-38
2022/11/10 08:56:12;;;;;;;;;;;17.60;94.10;;;;;;5095919;28;19959;-37
2022/11/10 08:58:37;;;;;;;;;;;17.60;94.10;;;;;;5091756;28;20006;-37
2022/11/10 09:01:10;;;;;;;;;;;17.60;94.10;;;;;;5100737;28;19928;-38
2022/11/10 09:03:35;;;;;;;;;;;17.60;94.00;;;;;;5099146;28;19924;-37
2022/11/10 09:06:01;;;;;;;;;;;17.60;94.10;;;;;;5103792;28;19912;-38
2022/11/10 09:08:27;;;;;;;;;;;17.60;94.10;;;;;;5102608;28;19924;-38
2022/11/10 09:10:52;;;;;;;;;;;17.60;94.00;;;;;;5104610;28;19934;-37
2022/11/10 09:13:20;;;;;;;;;;;17.60;94.00;;;;;;5111855;28;19915;-38
2022/11/10 09:15:46;;;;;;;;;;;17.60;94.10;;;;;;5098736;28;19920;-38
2022/11/10 09:18:12;;;;;;;;;;;17.60;94.10;;;;;;5111366;28;19912;-38
2022/11/10 09:20:38;;;;;;;;;;;17.60;94.10;;;;;;5101108;28;20479;-38
2022/11/10 09:23:05;;;;;;;;;;;17.60;94.10;;;;;;5106749;28;20037;-38
2022/11/10 09:25:30;;;;;;;;;;;17.60;94.10;;;;;;5097119;28;20270;-38
2022/11/10 09:27:56;;;;;;;;;;;17.60;94.10;;;;;;5095339;28;19912;-37
2022/11/10 09:30:21;;;;;;;;;;;17.60;94.10;;;;;;5102202;28;19911;-39
2022/11/10 09:32:52;;;;;;;;;;;17.60;94.10;;;;;;5115872;28;19960;-37
2022/11/10 09:35:17;;;;;;;;;;;17.60;94.20;;;;;;5111463;28;20007;-38
2022/11/10 09:37:43;;;;;;;;;;;17.60;94.30;;;;;;5105800;28;19927;-38
2022/11/10 09:40:14;;;;;;;;;;;17.70;94.30;;;;;;5097372;28;19912;-37
2022/11/10 09:42:40;;;;;;;;;;;17.60;94.40;;;;;;5101517;28;19911;-38
2022/11/10 09:45:19;;;;;;;;;;;17.60;94.40;;;;;;5080190;28;19916;-37
2022/11/10 09:47:48;;;;;;;;;;;17.60;94.40;;;;;;5101776;28;20394;-38
2022/11/10 09:50:18;;;;;;;;;;;17.60;94.40;;;;;;5093466;28;19916;-37
2022/11/10 09:52:44;;;;;;;;;;;17.70;94.40;;;;;;5090593;28;19912;-43
2022/11/10 09:55:30;;;;;;;;;;;17.70;94.30;;;;;;5091390;28;19915;-36
2022/11/10 09:57:57;;;;;;;;;;;17.70;94.20;;;;;;5098156;28;20389;-37
2022/11/10 10:00:23;;;;;;;;;;;17.70;94.20;;;;;;5077357;28;20269;-42
2022/11/10 10:02:52;;;;;;;;;;;17.70;94.20;;;;;;5098838;28;19913;-37
2022/11/10 10:05:23;;;;;;;;;;;17.70;94.20;;;;;;5107650;28;19912;-37
2022/11/10 10:07:59;;;;;;;;;;;17.60;94.10;;;;;;5111171;28;20018;-37
2022/11/10 10:10:32;;;;;;;;;;;17.60;94.10;;;;;;5106465;28;19920;-37
2022/11/10 10:12:57;;;;;;;;;;;17.70;94.10;;;;;;5085526;28;20282;-38
2022/11/10 10:15:34;;;;;;;;;;;17.70;94.00;;;;;;5091634;28;20401;-37
2022/11/10 10:18:02;;;;;;;;;;;17.60;94.00;;;;;;5078128;28;19908;-37
2022/11/10 10:20:46;;;;;;;;;;;17.70;94.00;;;;;;5093777;28;19998;-37
2022/11/10 10:23:12;;;;;;;;;;;17.70;94.00;;;;;;5094606;28;20377;-37
2022/11/10 10:25:38;;;;;;;;;;;17.70;94.00;;;;;;5094250;28;19908;-38
2022/11/10 10:28:12;;;;;;;;;;;17.70;94.10;;;;;;5094110;28;19908;-37
2022/11/10 10:30:39;;;;;;;;;;;17.70;94.10;;;;;;5110917;28;19955;-37
2022/11/10 10:33:12;;;;;;;;;;;17.70;94.10;;;;;;5074312;28;19919;-37
2022/11/10 10:35:38;;;;;;;;;;;17.70;94.10;;;;;;5093747;28;20286;-37
2022/11/10 10:38:04;;;;;;;;;;;17.70;94.10;;;;;;5094031;28;19912;-37
2022/11/10 10:40:29;;;;;;;;;;;17.70;94.10;;;;;;5094496;28;19915;-37
2022/11/10 10:42:57;;;;;;;;;;;17.70;94.10;;;;;;5093372;28;19912;-37
2022/11/10 10:45:24;;;;;;;;;;;17.70;94.10;;;;;;5105253;28;20435;-37
2022/11/10 10:47:50;;;;;;;;;;;17.70;94.10;;;;;;5092511;28;20010;-38
2022/11/10 10:50:26;;;;;;;;;;;17.70;94.10;;;;;;5093968;28;19908;-37
2022/11/10 10:53:11;;;;;;;;;;;17.70;94.20;;;;;;5093910;28;19908;-37
2022/11/10 10:55:37;;;;;;;;;;;17.70;94.20;;;;;;5094854;28;19980;-37
2022/11/10 10:58:18;;;;;;;;;;;17.70;94.20;;;;;;5098283;28;20366;-37
2022/11/10 11:00:44;;;;;;;;;;;17.70;94.20;;;;;;5089213;28;19912;-37
2022/11/10 11:03:12;;;;;;;;;;;17.70;94.20;;;;;;5110805;28;20037;-37
2022/11/10 11:05:38;;;;;;;;;;;17.70;94.20;;;;;;5095649;28;20008;-36
2022/11/10 11:08:04;;;;;;;;;;;17.70;94.20;;;;;;5094380;28;20381;-37
2022/11/10 11:10:33;;;;;;;;;;;17.70;94.20;;;;;;5097469;28;19912;-37
2022/11/10 11:13:19;;;;;;;;;;;17.70;94.20;;;;;;5093174;28;19912;-37
2022/11/10 11:15:55;;;;;;;;;;;17.70;94.20;;;;;;5099911;28;19916;-38
2022/11/10 11:18:20;;;;;;;;;;;17.70;94.20;;;;;;5109521;28;19912;-37
2022/11/10 11:21:04;;;;;;;;;;;17.70;94.20;;;;;;5108510;28;20382;-39
2022/11/10 11:23:44;;;;;;;;;;;17.70;94.20;;;;;;5089823;28;20007;-38
2022/11/10 11:26:35;;;;;;;;;;;17.70;94.20;;;;;;5103772;28;19912;-38
2022/11/10 11:29:07;;;;;;;;;;;17.70;94.20;;;;;;5071250;28;19912;-38
2022/11/10 11:31:44;;;;;;;;;;;17.70;94.10;;;;;;5111804;28;19918;-38
2022/11/10 11:34:18;;;;;;;;;;;17.70;94.10;;;;;;5105235;28;19962;-38
2022/11/10 11:36:43;;;;;;;;;;;17.70;94.10;;;;;;5108012;28;19918;-38
2022/11/10 11:39:18;;;;;;;;;;;17.70;94.10;;;;;;5111093;28;19922;-38
2022/11/10 11:41:43;;;;;;;;;;;17.70;94.10;;;;;;5106577;28;19912;-38
2022/11/10 11:44:14;;;;;;;;;;;17.70;94.00;;;;;;5112304;28;19912;-38
2022/11/10 11:46:43;;;;;;;;;;;17.70;94.00;;;;;;5110132;28;19917;-38
2022/11/10 11:49:27;;;;;;;;;;;17.80;94.00;;;;;;5113642;28;19912;-38
2022/11/10 11:52:05;;;;;;;;;;;17.80;94.00;;;;;;5110552;28;19992;-38
2022/11/10 11:54:49;;;;;;;;;;;17.70;94.00;;;;;;5113964;28;19938;-49
2022/11/10 11:57:19;;;;;;;;;;;17.70;94.00;;;;;;5088994;28;19916;-38
2022/11/10 11:59:55;;;;;;;;;;;17.70;94.00;;;;;;5108912;28;19912;-38
2022/11/10 12:02:33;;;;;;;;;;;17.70;94.00;;;;;;5103563;28;19911;-38
2022/11/10 12:05:07;;;;;;;;;;;17.70;94.00;;;;;;5083968;28;19919;-38
2022/11/10 12:07:41;;;;;;;;;;;17.80;94.00;;;;;;5110819;28;19920;-39
2022/11/10 12:10:16;;;;;;;;;;;17.80;94.00;;;;;;5108690;28;20004;-38
2022/11/10 12:12:44;;;;;;;;;;;17.70;94.00;;;;;;5109706;28;19919;-38
2022/11/10 12:15:10;;;;;;;;;;;17.70;94.00;;;;;;5095950;28;19915;-38
2022/11/10 12:17:54;;;;;;;;;;;17.70;94.00;;;;;;5117314;28;20325;-37
2022/11/10 12:20:28;;;;;;;;;;;17.80;94.00;;;;;;5110018;28;19919;-37
2022/11/10 12:23:00;;;;;;;;;;;17.70;93.80;;;;;;5110046;28;20271;-37
2022/11/10 12:25:29;;;;;;;;;;;17.70;93.70;;;;;;5112154;28;19958;-38
2022/11/10 12:27:59;;;;;;;;;;;17.70;93.70;;;;;;5099161;28;19911;-38
2022/11/10 12:30:24;;;;;;;;;;;17.70;93.80;;;;;;5100365;28;20294;-38
2022/11/10 12:32:56;;;;;;;;;;;17.70;94.00;;;;;;5112543;28;19912;-38
2022/11/10 12:35:23;;;;;;;;;;;17.70;94.20;;;;;;5107806;28;20131;-38
2022/11/10 12:37:53;;;;;;;;;;;17.70;94.20;;;;;;5101615;28;19912;-38
2022/11/10 12:40:45;;;;;;;;;;;17.70;94.20;;;;;;5095457;28;19919;-38
2022/11/10 12:43:24;;;;;;;;;;;17.70;94.20;;;;;;5077437;28;19934;-37
2022/11/10 12:45:57;;;;;;;;;;;17.70;94.20;;;;;;5095291;28;19916;-38
2022/11/10 12:48:22;;;;;;;;;;;17.70;94.20;;;;;;5093397;28;19959;-38
2022/11/10 12:50:59;;;;;;;;;;;17.80;94.20;;;;;;5098456;28;19915;-38
2022/11/10 12:53:26;;;;;;;;;;;17.70;94.20;;;;;;5096318;28;19912;-38
2022/11/10 12:55:54;;;;;;;;;;;17.70;94.20;;;;;;5095855;28;20367;-38
2022/11/10 12:58:20;;;;;;;;;;;17.80;94.20;;;;;;5096044;28;19908;-38
2022/11/10 13:00:57;;;;;;;;;;;17.70;94.10;;;;;;5091652;28;19920;-38
2022/11/10 13:03:27;;;;;;;;;;;17.80;94.20;;;;;;5092566;28;19912;-38
2022/11/10 13:05:53;;;;;;;;;;;17.80;94.10;;;;;;5107870;28;19908;-38
2022/11/10 13:08:26;;;;;;;;;;;17.80;94.10;;;;;;5114244;28;19928;-38
2022/11/10 13:10:53;;;;;;;;;;;17.80;94.10;;;;;;5095968;28;19931;-38
2022/11/10 13:13:20;;;;;;;;;;;17.70;94.00;;;;;;5094374;28;19919;-41
2022/11/10 13:15:47;;;;;;;;;;;17.70;94.00;;;;;;5099143;28;20012;-38
2022/11/10 13:18:23;;;;;;;;;;;17.70;94.00;;;;;;5111778;28;20003;-38
2022/11/10 13:20:53;;;;;;;;;;;17.80;94.00;;;;;;5111014;28;19911;-44
2022/11/10 13:23:37;;;;;;;;;;;17.80;94.00;;;;;;5110514;28;19911;-38
2022/11/10 13:26:23;;;;;;;;;;;17.80;94.00;;;;;;5105552;28;19919;-38
2022/11/10 13:28:56;;;;;;;;;;;17.80;93.90;;;;;;5080672;28;19908;-38
2022/11/10 13:31:27;;;;;;;;;;;17.70;93.90;;;;;;5106815;28;20363;-40
2022/11/10 13:34:03;;;;;;;;;;;17.70;93.90;;;;;;5106573;28;20380;-38
2022/11/10 13:36:42;;;;;;;;;;;17.70;93.80;;;;;;5110989;28;19923;-38
2022/11/10 13:39:19;;;;;;;;;;;17.70;93.80;;;;;;5104789;28;19991;-38
2022/11/10 13:41:45;;;;;;;;;;;17.70;93.80;;;;;;5093587;28;19912;-39
2022/11/10 13:44:29;;;;;;;;;;;17.70;93.80;;;;;;5081525;28;20308;-39
2022/11/10 13:46:55;;;;;;;;;;;17.70;93.80;;;;;;5115431;28;20278;-38
2022/11/10 13:49:32;;;;;;;;;;;17.80;93.80;;;;;;5105568;28;19909;-38
2022/11/10 13:52:05;;;;;;;;;;;17.70;93.80;;;;;;5094489;28;19954;-39
2022/11/10 13:54:49;;;;;;;;;;;17.80;93.80;;;;;;5093178;28;19912;-39
2022/11/10 13:57:14;;;;;;;;;;;17.80;93.80;;;;;;5093532;28;19999;-38
2022/11/10 13:59:51;;;;;;;;;;;17.70;93.70;;;;;;5093687;28;19994;-39
2022/11/10 14:02:32;;;;;;;;;;;17.70;93.70;;;;;;5094321;28;19923;-40
2022/11/10 14:05:05;;;;;;;;;;;17.80;93.70;;;;;;5093899;28;19912;-38
2022/11/10 14:07:36;;;;;;;;;;;17.70;93.70;;;;;;5093209;28;19927;-40
2022/11/10 14:10:10;;;;;;;;;;;17.70;93.70;;;;;;5093207;28;19915;-39
2022/11/10 14:12:45;;;;;;;;;;;17.70;93.70;;;;;;5074407;28;19934;-40
2022/11/10 14:15:16;;;;;;;;;;;17.70;93.70;;;;;;5092782;28;19916;-47
2022/11/10 14:17:45;;;;;;;;;;;17.70;93.70;;;;;;5083931;28;19926;-38
2022/11/10 14:20:19;;;;;;;;;;;17.70;93.70;;;;;;5092182;28;19980;-38
2022/11/10 14:22:48;;;;;;;;;;;17.70;93.70;;;;;;5091409;28;19917;-40
2022/11/10 14:25:13;;;;;;;;;;;17.80;93.70;;;;;;5092316;28;19912;-37
2022/11/10 14:27:38;;;;;;;;;;;17.70;93.60;;;;;;5110996;28;19965;-37
2022/11/10 14:30:06;;;;;;;;;;;17.70;93.70;;;;;;5104430;28;19909;-37
2022/11/10 14:32:31;;;;;;;;;;;17.70;93.70;;;;;;5102297;28;19912;-37